Decoded Metar for LFKB (BASTIA in CORSE ISL.) (IATA:BIA) | Meteo·Mobile Aviation Weather
aviador You're here:

LFKB Decoded Metar

BASTIA in CORSE ISL.
Report Time2020-02-23 11:00:00
UTC Time2020-02-23 11:30:45
Flight Rules mvfr MVFR
WindVRB at 03 kt
Visibility9999 m
Phenomena:N/A
Clouds:Broken 026 Hf
Expected CloudBase > 2,400 ft AGL from Temp-Dew spread
Ceiling2,600 ft
Temp15°C (ISA 0)
Dew Point09°C (68% RH)
AAT13.7°C
QNH1030 hPa
Density Alt-367 ft
Elevation39 ft
Report Wrong Elevation
Raw Report
LFKB 231100Z AUTO VRB03KT 9999 BKN026 15/09 Q1030 NOSIG=

Extra information for LFKB:More info

Metar Taf Metar & Taf Last 4 Metars F.Rules Stats Wind Profile Meteogram Temp Stats Airport Information Weather charts Add Link Nearby VenuesMetar ALERT Operation Metar Decoded Social comments